sensor_id;sensor_type;location;lat;lon;timestamp;P1;durP1;ratioP1;P2;durP2;ratioP2
31482;SDS011;18103;52.246;8.052;2022-12-18T00:01:04;6.28;;;3.00;;
31482;SDS011;18103;52.246;8.052;2022-12-18T00:03:40;7.95;;;3.45;;
31482;SDS011;18103;52.246;8.052;2022-12-18T00:06:05;4.67;;;3.20;;
31482;SDS011;18103;52.246;8.052;2022-12-18T00:08:31;8.03;;;4.47;;
31482;SDS011;18103;52.246;8.052;2022-12-18T00:11:03;7.70;;;4.13;;
31482;SDS011;18103;52.246;8.052;2022-12-18T00:13:32;7.50;;;3.03;;
31482;SDS011;18103;52.246;8.052;2022-12-18T00:16:01;7.63;;;3.43;;
31482;SDS011;18103;52.246;8.052;2022-12-18T00:18:28;18.65;;;4.18;;
31482;SDS011;18103;52.246;8.052;2022-12-18T00:20:53;5.53;;;3.40;;
31482;SDS011;18103;52.246;8.052;2022-12-18T00:23:19;4.37;;;3.13;;
31482;SDS011;18103;52.246;8.052;2022-12-18T00:25:44;9.03;;;4.70;;
31482;SDS011;18103;52.246;8.052;2022-12-18T00:28:09;7.23;;;3.37;;
31482;SDS011;18103;52.246;8.052;2022-12-18T00:30:35;9.73;;;4.30;;
31482;SDS011;18103;52.246;8.052;2022-12-18T00:33:00;9.57;;;3.80;;
31482;SDS011;18103;52.246;8.052;2022-12-18T00:35:26;8.87;;;2.80;;
31482;SDS011;18103;52.246;8.052;2022-12-18T00:37:51;12.67;;;4.30;;
31482;SDS011;18103;52.246;8.052;2022-12-18T00:40:16;5.73;;;2.53;;
31482;SDS011;18103;52.246;8.052;2022-12-18T00:42:42;12.60;;;4.00;;
31482;SDS011;18103;52.246;8.052;2022-12-18T00:45:23;5.18;;;3.22;;
31482;SDS011;18103;52.246;8.052;2022-12-18T00:47:50;8.13;;;4.00;;
31482;SDS011;18103;52.246;8.052;2022-12-18T00:50:16;5.90;;;2.90;;
31482;SDS011;18103;52.246;8.052;2022-12-18T00:52:41;6.20;;;2.90;;
31482;SDS011;18103;52.246;8.052;2022-12-18T00:55:07;4.88;;;2.70;;
31482;SDS011;18103;52.246;8.052;2022-12-18T00:57:33;13.13;;;3.63;;
31482;SDS011;18103;52.246;8.052;2022-12-18T00:59:58;5.17;;;3.23;;
31482;SDS011;18103;52.246;8.052;2022-12-18T01:02:24;5.93;;;3.13;;
31482;SDS011;18103;52.246;8.052;2022-12-18T01:04:49;8.10;;;3.60;;
31482;SDS011;18103;52.246;8.052;2022-12-18T01:07:15;4.47;;;3.40;;
31482;SDS011;18103;52.246;8.052;2022-12-18T01:09:40;7.17;;;3.50;;
31482;SDS011;18103;52.246;8.052;2022-12-18T01:12:06;10.93;;;3.87;;
31482;SDS011;18103;52.246;8.052;2022-12-18T01:14:31;12.73;;;4.00;;
31482;SDS011;18103;52.246;8.052;2022-12-18T01:16:56;5.13;;;3.07;;
31482;SDS011;18103;52.246;8.052;2022-12-18T01:19:22;5.63;;;2.50;;
31482;SDS011;18103;52.246;8.052;2022-12-18T01:21:48;4.35;;;2.55;;
31482;SDS011;18103;52.246;8.052;2022-12-18T01:24:14;12.03;;;3.57;;
31482;SDS011;18103;52.246;8.052;2022-12-18T01:26:39;13.53;;;3.73;;
31482;SDS011;18103;52.246;8.052;2022-12-18T01:29:05;8.03;;;3.13;;
31482;SDS011;18103;52.246;8.052;2022-12-18T01:31:31;11.37;;;3.57;;
31482;SDS011;18103;52.246;8.052;2022-12-18T01:34:00;9.15;;;4.60;;
31482;SDS011;18103;52.246;8.052;2022-12-18T01:36:30;8.50;;;2.22;;
31482;SDS011;18103;52.246;8.052;2022-12-18T01:38:59;7.20;;;3.13;;
31482;SDS011;18103;52.246;8.052;2022-12-18T01:41:27;8.05;;;2.70;;
31482;SDS011;18103;52.246;8.052;2022-12-18T01:47:20;5.70;;;2.90;;
31482;SDS011;18103;52.246;8.052;2022-12-18T01:49:49;3.63;;;2.08;;
31482;SDS011;18103;52.246;8.052;2022-12-18T01:52:15;1.93;;;1.63;;
31482;SDS011;18103;52.246;8.052;2022-12-18T01:54:43;10.70;;;1.58;;
31482;SDS011;18103;52.246;8.052;2022-12-18T01:57:09;4.45;;;2.08;;
31482;SDS011;18103;52.246;8.052;2022-12-18T01:59:34;3.60;;;2.10;;
31482;SDS011;18103;52.246;8.052;2022-12-18T02:02:01;5.25;;;3.17;;
31482;SDS011;18103;52.246;8.052;2022-12-18T02:04:28;6.28;;;2.45;;
31482;SDS011;18103;52.246;8.052;2022-12-18T02:06:55;4.90;;;2.83;;
31482;SDS011;18103;52.246;8.052;2022-12-18T02:09:44;5.95;;;3.13;;
31482;SDS011;18103;52.246;8.052;2022-12-18T02:12:18;5.55;;;3.03;;
31482;SDS011;18103;52.246;8.052;2022-12-18T02:14:49;6.60;;;3.00;;
31482;SDS011;18103;52.246;8.052;2022-12-18T02:17:22;6.30;;;3.25;;
31482;SDS011;18103;52.246;8.052;2022-12-18T02:20:13;8.63;;;3.10;;
31482;SDS011;18103;52.246;8.052;2022-12-18T02:28:38;8.15;;;3.63;;
31482;SDS011;18103;52.246;8.052;2022-12-18T02:31:08;6.40;;;2.90;;
31482;SDS011;18103;52.246;8.052;2022-12-18T02:33:38;8.20;;;3.05;;
31482;SDS011;18103;52.246;8.052;2022-12-18T02:36:05;7.53;;;4.25;;
31482;SDS011;18103;52.246;8.052;2022-12-18T02:38:31;8.73;;;3.08;;
31482;SDS011;18103;52.246;8.052;2022-12-18T02:40:59;5.53;;;2.95;;
31482;SDS011;18103;52.246;8.052;2022-12-18T02:43:25;7.43;;;3.38;;
31482;SDS011;18103;52.246;8.052;2022-12-18T02:45:53;5.83;;;3.90;;
31482;SDS011;18103;52.246;8.052;2022-12-18T02:48:22;5.75;;;3.42;;
31482;SDS011;18103;52.246;8.052;2022-12-18T02:53:45;4.13;;;2.55;;
31482;SDS011;18103;52.246;8.052;2022-12-18T02:56:23;5.00;;;2.85;;
31482;SDS011;18103;52.246;8.052;2022-12-18T02:59:04;4.30;;;2.17;;
31482;SDS011;18103;52.246;8.052;2022-12-18T03:01:38;8.52;;;2.90;;
31482;SDS011;18103;52.246;8.052;2022-12-18T03:04:11;5.97;;;2.78;;
31482;SDS011;18103;52.246;8.052;2022-12-18T03:06:43;9.48;;;3.95;;
31482;SDS011;18103;52.246;8.052;2022-12-18T03:09:18;4.90;;;3.08;;
31482;SDS011;18103;52.246;8.052;2022-12-18T03:11:53;4.38;;;2.78;;
31482;SDS011;18103;52.246;8.052;2022-12-18T03:14:45;9.48;;;3.35;;
31482;SDS011;18103;52.246;8.052;2022-12-18T03:17:20;14.68;;;3.13;;
31482;SDS011;18103;52.246;8.052;2022-12-18T03:19:51;7.20;;;2.47;;
31482;SDS011;18103;52.246;8.052;2022-12-18T03:22:18;9.38;;;3.75;;
31482;SDS011;18103;52.246;8.052;2022-12-18T03:24:46;7.72;;;3.38;;
31482;SDS011;18103;52.246;8.052;2022-12-18T03:27:14;9.80;;;4.22;;
31482;SDS011;18103;52.246;8.052;2022-12-18T03:29:48;5.72;;;2.92;;
31482;SDS011;18103;52.246;8.052;2022-12-18T03:32:25;5.28;;;3.25;;
31482;SDS011;18103;52.246;8.052;2022-12-18T03:34:56;7.85;;;4.75;;
31482;SDS011;18103;52.246;8.052;2022-12-18T03:37:26;8.80;;;3.67;;
31482;SDS011;18103;52.246;8.052;2022-12-18T03:39:51;5.90;;;3.73;;
31482;SDS011;18103;52.246;8.052;2022-12-18T03:42:22;8.03;;;3.70;;
31482;SDS011;18103;52.246;8.052;2022-12-18T03:56:00;4.68;;;2.20;;
31482;SDS011;18103;52.246;8.052;2022-12-18T03:58:27;4.10;;;2.10;;
31482;SDS011;18103;52.246;8.052;2022-12-18T04:00:58;5.63;;;2.92;;
31482;SDS011;18103;52.246;8.052;2022-12-18T04:03:26;3.10;;;2.42;;
31482;SDS011;18103;52.246;8.052;2022-12-18T04:05:54;7.55;;;3.40;;
31482;SDS011;18103;52.246;8.052;2022-12-18T04:08:22;9.05;;;3.33;;
31482;SDS011;18103;52.246;8.052;2022-12-18T04:10:48;8.32;;;4.38;;
31482;SDS011;18103;52.246;8.052;2022-12-18T04:13:21;13.87;;;3.97;;
31482;SDS011;18103;52.246;8.052;2022-12-18T04:15:48;13.00;;;3.58;;
31482;SDS011;18103;52.246;8.052;2022-12-18T04:18:13;9.80;;;3.70;;
31482;SDS011;18103;52.246;8.052;2022-12-18T04:20:38;4.37;;;3.10;;
31482;SDS011;18103;52.246;8.052;2022-12-18T04:23:04;14.37;;;4.03;;
31482;SDS011;18103;52.246;8.052;2022-12-18T04:25:29;5.43;;;2.33;;
31482;SDS011;18103;52.246;8.052;2022-12-18T04:27:55;10.33;;;4.10;;
31482;SDS011;18103;52.246;8.052;2022-12-18T04:30:20;7.47;;;3.07;;
31482;SDS011;18103;52.246;8.052;2022-12-18T04:32:45;7.10;;;3.87;;
31482;SDS011;18103;52.246;8.052;2022-12-18T04:35:11;3.63;;;2.90;;
31482;SDS011;18103;52.246;8.052;2022-12-18T04:37:36;9.67;;;3.73;;
31482;SDS011;18103;52.246;8.052;2022-12-18T04:40:02;6.47;;;3.90;;
31482;SDS011;18103;52.246;8.052;2022-12-18T04:42:29;12.35;;;4.22;;
31482;SDS011;18103;52.246;8.052;2022-12-18T04:44:55;7.50;;;4.10;;
31482;SDS011;18103;52.246;8.052;2022-12-18T04:47:20;8.50;;;4.33;;
31482;SDS011;18103;52.246;8.052;2022-12-18T04:49:45;9.40;;;4.40;;
31482;SDS011;18103;52.246;8.052;2022-12-18T04:52:11;8.47;;;3.03;;
31482;SDS011;18103;52.246;8.052;2022-12-18T04:54:36;8.17;;;4.87;;
31482;SDS011;18103;52.246;8.052;2022-12-18T04:57:01;6.97;;;3.23;;
31482;SDS011;18103;52.246;8.052;2022-12-18T04:59:27;6.40;;;2.90;;
31482;SDS011;18103;52.246;8.052;2022-12-18T05:01:52;5.63;;;3.30;;
31482;SDS011;18103;52.246;8.052;2022-12-18T05:04:18;5.20;;;3.17;;
31482;SDS011;18103;52.246;8.052;2022-12-18T05:06:43;8.47;;;3.47;;
31482;SDS011;18103;52.246;8.052;2022-12-18T05:09:08;3.90;;;2.17;;
31482;SDS011;18103;52.246;8.052;2022-12-18T05:11:34;7.50;;;4.07;;
31482;SDS011;18103;52.246;8.052;2022-12-18T05:13:59;8.70;;;3.33;;
31482;SDS011;18103;52.246;8.052;2022-12-18T05:16:24;9.57;;;3.17;;
31482;SDS011;18103;52.246;8.052;2022-12-18T05:18:50;9.20;;;3.40;;
31482;SDS011;18103;52.246;8.052;2022-12-18T05:21:15;7.77;;;2.60;;
31482;SDS011;18103;52.246;8.052;2022-12-18T05:23:40;9.17;;;3.17;;
31482;SDS011;18103;52.246;8.052;2022-12-18T05:26:06;7.83;;;3.50;;
31482;SDS011;18103;52.246;8.052;2022-12-18T05:28:33;8.18;;;4.10;;
31482;SDS011;18103;52.246;8.052;2022-12-18T05:31:00;6.20;;;3.08;;
31482;SDS011;18103;52.246;8.052;2022-12-18T05:33:29;4.82;;;2.45;;
31482;SDS011;18103;52.246;8.052;2022-12-18T05:36:00;6.05;;;3.22;;
31482;SDS011;18103;52.246;8.052;2022-12-18T05:38:27;16.90;;;3.55;;
31482;SDS011;18103;52.246;8.052;2022-12-18T05:40:57;11.18;;;4.63;;
31482;SDS011;18103;52.246;8.052;2022-12-18T05:43:23;8.47;;;3.33;;
31482;SDS011;18103;52.246;8.052;2022-12-18T05:45:49;7.20;;;3.47;;
31482;SDS011;18103;52.246;8.052;2022-12-18T05:48:16;8.07;;;4.53;;
31482;SDS011;18103;52.246;8.052;2022-12-18T05:50:42;5.57;;;3.37;;
31482;SDS011;18103;52.246;8.052;2022-12-18T05:53:12;7.35;;;4.05;;
31482;SDS011;18103;52.246;8.052;2022-12-18T05:55:40;11.00;;;4.15;;
31482;SDS011;18103;52.246;8.052;2022-12-18T05:58:07;8.65;;;3.60;;
31482;SDS011;18103;52.246;8.052;2022-12-18T06:00:34;9.02;;;2.72;;
31482;SDS011;18103;52.246;8.052;2022-12-18T06:03:01;6.97;;;3.83;;
31482;SDS011;18103;52.246;8.052;2022-12-18T06:05:26;6.73;;;3.20;;
31482;SDS011;18103;52.246;8.052;2022-12-18T06:07:52;6.27;;;2.70;;
31482;SDS011;18103;52.246;8.052;2022-12-18T06:10:17;8.00;;;3.07;;
31482;SDS011;18103;52.246;8.052;2022-12-18T06:12:43;6.63;;;3.87;;
31482;SDS011;18103;52.246;8.052;2022-12-18T06:15:09;5.63;;;3.90;;
31482;SDS011;18103;52.246;8.052;2022-12-18T06:17:34;8.70;;;4.13;;
31482;SDS011;18103;52.246;8.052;2022-12-18T06:20:00;7.33;;;2.53;;
31482;SDS011;18103;52.246;8.052;2022-12-18T06:22:26;6.07;;;2.75;;
31482;SDS011;18103;52.246;8.052;2022-12-18T06:24:52;6.15;;;2.78;;
31482;SDS011;18103;52.246;8.052;2022-12-18T06:27:18;7.77;;;3.77;;
31482;SDS011;18103;52.246;8.052;2022-12-18T06:29:43;7.27;;;2.03;;
31482;SDS011;18103;52.246;8.052;2022-12-18T06:32:09;9.67;;;3.77;;
31482;SDS011;18103;52.246;8.052;2022-12-18T06:34:36;9.60;;;3.47;;
31482;SDS011;18103;52.246;8.052;2022-12-18T06:37:05;8.70;;;3.72;;
31482;SDS011;18103;52.246;8.052;2022-12-18T06:39:31;11.10;;;4.68;;
31482;SDS011;18103;52.246;8.052;2022-12-18T06:41:56;2.73;;;2.27;;
31482;SDS011;18103;52.246;8.052;2022-12-18T06:44:22;8.17;;;3.63;;
31482;SDS011;18103;52.246;8.052;2022-12-18T06:46:47;6.23;;;2.97;;
31482;SDS011;18103;52.246;8.052;2022-12-18T06:49:12;13.10;;;4.33;;
31482;SDS011;18103;52.246;8.052;2022-12-18T06:51:38;6.80;;;2.80;;
31482;SDS011;18103;52.246;8.052;2022-12-18T06:54:03;16.10;;;4.40;;
31482;SDS011;18103;52.246;8.052;2022-12-18T06:56:29;4.87;;;3.23;;
31482;SDS011;18103;52.246;8.052;2022-12-18T06:58:55;12.57;;;3.47;;
31482;SDS011;18103;52.246;8.052;2022-12-18T07:01:20;7.70;;;2.93;;
31482;SDS011;18103;52.246;8.052;2022-12-18T07:03:47;7.05;;;3.35;;
31482;SDS011;18103;52.246;8.052;2022-12-18T07:06:19;5.32;;;2.50;;
31482;SDS011;18103;52.246;8.052;2022-12-18T07:08:46;9.13;;;3.47;;
31482;SDS011;18103;52.246;8.052;2022-12-18T07:11:12;7.10;;;3.75;;
31482;SDS011;18103;52.246;8.052;2022-12-18T07:13:37;8.17;;;3.70;;
31482;SDS011;18103;52.246;8.052;2022-12-18T07:16:04;4.83;;;3.03;;
31482;SDS011;18103;52.246;8.052;2022-12-18T07:18:40;7.65;;;2.90;;
31482;SDS011;18103;52.246;8.052;2022-12-18T07:21:06;11.13;;;5.17;;
31482;SDS011;18103;52.246;8.052;2022-12-18T07:23:36;6.82;;;3.22;;
31482;SDS011;18103;52.246;8.052;2022-12-18T07:26:03;5.23;;;3.13;;
31482;SDS011;18103;52.246;8.052;2022-12-18T07:28:33;6.82;;;3.25;;
31482;SDS011;18103;52.246;8.052;2022-12-18T07:31:02;10.10;;;5.82;;
31482;SDS011;18103;52.246;8.052;2022-12-18T07:33:28;10.38;;;4.95;;
31482;SDS011;18103;52.246;8.052;2022-12-18T07:35:53;8.80;;;4.77;;
31482;SDS011;18103;52.246;8.052;2022-12-18T07:38:19;6.60;;;3.03;;
31482;SDS011;18103;52.246;8.052;2022-12-18T07:40:44;6.60;;;3.67;;
31482;SDS011;18103;52.246;8.052;2022-12-18T07:43:10;9.60;;;4.40;;
31482;SDS011;18103;52.246;8.052;2022-12-18T07:45:35;2.03;;;1.83;;
31482;SDS011;18103;52.246;8.052;2022-12-18T07:48:01;9.10;;;3.87;;
31482;SDS011;18103;52.246;8.052;2022-12-18T07:50:26;9.50;;;3.47;;
31482;SDS011;18103;52.246;8.052;2022-12-18T07:52:52;8.80;;;4.27;;
31482;SDS011;18103;52.246;8.052;2022-12-18T07:55:17;9.17;;;4.73;;
31482;SDS011;18103;52.246;8.052;2022-12-18T07:57:42;4.73;;;2.77;;
31482;SDS011;18103;52.246;8.052;2022-12-18T08:00:08;12.00;;;4.20;;
31482;SDS011;18103;52.246;8.052;2022-12-18T08:02:33;5.13;;;2.33;;
31482;SDS011;18103;52.246;8.052;2022-12-18T08:04:59;9.03;;;4.30;;
31482;SDS011;18103;52.246;8.052;2022-12-18T08:07:24;4.97;;;3.63;;
31482;SDS011;18103;52.246;8.052;2022-12-18T08:09:50;7.57;;;3.87;;
31482;SDS011;18103;52.246;8.052;2022-12-18T08:12:15;8.27;;;4.47;;
31482;SDS011;18103;52.246;8.052;2022-12-18T08:14:41;4.07;;;2.87;;
31482;SDS011;18103;52.246;8.052;2022-12-18T08:17:07;10.43;;;4.55;;
31482;SDS011;18103;52.246;8.052;2022-12-18T08:19:32;8.77;;;3.43;;
31482;SDS011;18103;52.246;8.052;2022-12-18T08:21:58;12.53;;;3.73;;
31482;SDS011;18103;52.246;8.052;2022-12-18T08:24:23;9.07;;;4.20;;
31482;SDS011;18103;52.246;8.052;2022-12-18T08:26:49;8.77;;;4.10;;
31482;SDS011;18103;52.246;8.052;2022-12-18T08:29:15;6.70;;;3.75;;
31482;SDS011;18103;52.246;8.052;2022-12-18T08:31:40;5.33;;;3.43;;
31482;SDS011;18103;52.246;8.052;2022-12-18T08:34:07;8.53;;;5.27;;
31482;SDS011;18103;52.246;8.052;2022-12-18T08:36:32;11.13;;;4.47;;
31482;SDS011;18103;52.246;8.052;2022-12-18T08:38:58;8.00;;;3.57;;
31482;SDS011;18103;52.246;8.052;2022-12-18T08:41:23;8.47;;;4.97;;
31482;SDS011;18103;52.246;8.052;2022-12-18T08:43:49;17.40;;;4.17;;
31482;SDS011;18103;52.246;8.052;2022-12-18T08:46:39;6.05;;;2.92;;
31482;SDS011;18103;52.246;8.052;2022-12-18T08:49:06;6.63;;;2.95;;
31482;SDS011;18103;52.246;8.052;2022-12-18T08:51:32;13.32;;;5.82;;
31482;SDS011;18103;52.246;8.052;2022-12-18T08:53:58;6.70;;;3.37;;
31482;SDS011;18103;52.246;8.052;2022-12-18T08:56:23;10.97;;;4.33;;
31482;SDS011;18103;52.246;8.052;2022-12-18T08:58:51;12.43;;;4.00;;
31482;SDS011;18103;52.246;8.052;2022-12-18T09:01:20;7.28;;;4.93;;
31482;SDS011;18103;52.246;8.052;2022-12-18T09:03:46;9.57;;;5.22;;
31482;SDS011;18103;52.246;8.052;2022-12-18T09:06:15;10.23;;;5.30;;
31482;SDS011;18103;52.246;8.052;2022-12-18T09:08:43;13.13;;;5.65;;
31482;SDS011;18103;52.246;8.052;2022-12-18T09:11:13;5.93;;;3.55;;
31482;SDS011;18103;52.246;8.052;2022-12-18T09:13:59;10.70;;;5.95;;
31482;SDS011;18103;52.246;8.052;2022-12-18T09:16:26;12.30;;;4.50;;
31482;SDS011;18103;52.246;8.052;2022-12-18T09:18:53;17.85;;;5.00;;
31482;SDS011;18103;52.246;8.052;2022-12-18T09:21:24;10.13;;;4.75;;
31482;SDS011;18103;52.246;8.052;2022-12-18T09:23:51;14.25;;;5.53;;
31482;SDS011;18103;52.246;8.052;2022-12-18T09:26:18;12.38;;;5.28;;
31482;SDS011;18103;52.246;8.052;2022-12-18T09:28:44;13.97;;;4.80;;
31482;SDS011;18103;52.246;8.052;2022-12-18T09:31:12;15.00;;;5.57;;
31482;SDS011;18103;52.246;8.052;2022-12-18T09:33:38;14.18;;;6.47;;
31482;SDS011;18103;52.246;8.052;2022-12-18T09:36:05;12.30;;;4.40;;
31482;SDS011;18103;52.246;8.052;2022-12-18T09:38:35;14.02;;;4.97;;
31482;SDS011;18103;52.246;8.052;2022-12-18T09:46:36;14.50;;;5.65;;
31482;SDS011;18103;52.246;8.052;2022-12-18T09:49:10;9.80;;;5.43;;
31482;SDS011;18103;52.246;8.052;2022-12-18T09:51:39;22.75;;;5.70;;
31482;SDS011;18103;52.246;8.052;2022-12-18T09:54:53;23.08;;;5.93;;
31482;SDS011;18103;52.246;8.052;2022-12-18T09:57:03;20.52;;;5.43;;
31482;SDS011;18103;52.246;8.052;2022-12-18T10:02:15;13.20;;;5.40;;
31482;SDS011;18103;52.246;8.052;2022-12-18T10:04:43;15.20;;;6.82;;
31482;SDS011;18103;52.246;8.052;2022-12-18T10:07:12;6.90;;;4.50;;
31482;SDS011;18103;52.246;8.052;2022-12-18T10:09:55;10.18;;;3.80;;
31482;SDS011;18103;52.246;8.052;2022-12-18T10:15:06;11.77;;;4.97;;
31482;SDS011;18103;52.246;8.052;2022-12-18T10:17:55;14.88;;;5.03;;
31482;SDS011;18103;52.246;8.052;2022-12-18T10:20:52;8.80;;;5.18;;
31482;SDS011;18103;52.246;8.052;2022-12-18T10:26:09;13.82;;;4.72;;
31482;SDS011;18103;52.246;8.052;2022-12-18T10:28:37;16.92;;;5.53;;
31482;SDS011;18103;52.246;8.052;2022-12-18T10:31:12;14.13;;;5.70;;
31482;SDS011;18103;52.246;8.052;2022-12-18T10:33:41;13.93;;;5.82;;
31482;SDS011;18103;52.246;8.052;2022-12-18T10:36:10;12.38;;;5.45;;
31482;SDS011;18103;52.246;8.052;2022-12-18T10:38:36;12.93;;;5.70;;
31482;SDS011;18103;52.246;8.052;2022-12-18T10:41:05;13.97;;;6.13;;
31482;SDS011;18103;52.246;8.052;2022-12-18T10:43:39;10.57;;;6.00;;
31482;SDS011;18103;52.246;8.052;2022-12-18T10:48:56;8.90;;;4.65;;
31482;SDS011;18103;52.246;8.052;2022-12-18T10:56:29;15.75;;;5.60;;
31482;SDS011;18103;52.246;8.052;2022-12-18T10:58:58;17.15;;;7.10;;
31482;SDS011;18103;52.246;8.052;2022-12-18T11:01:54;19.70;;;8.05;;
31482;SDS011;18103;52.246;8.052;2022-12-18T11:04:21;16.85;;;7.30;;
31482;SDS011;18103;52.246;8.052;2022-12-18T11:06:52;16.38;;;7.15;;
31482;SDS011;18103;52.246;8.052;2022-12-18T11:09:21;13.45;;;6.88;;
31482;SDS011;18103;52.246;8.052;2022-12-18T11:11:50;21.13;;;8.32;;
31482;SDS011;18103;52.246;8.052;2022-12-18T11:14:22;18.60;;;6.50;;
31482;SDS011;18103;52.246;8.052;2022-12-18T11:16:50;18.85;;;9.30;;
31482;SDS011;18103;52.246;8.052;2022-12-18T11:21:46;11.32;;;5.88;;
31482;SDS011;18103;52.246;8.052;2022-12-18T11:24:17;13.87;;;7.07;;
31482;SDS011;18103;52.246;8.052;2022-12-18T11:26:47;19.00;;;8.50;;
31482;SDS011;18103;52.246;8.052;2022-12-18T11:29:17;15.75;;;7.90;;
31482;SDS011;18103;52.246;8.052;2022-12-18T11:31:47;13.20;;;7.25;;
31482;SDS011;18103;52.246;8.052;2022-12-18T11:34:29;17.70;;;8.00;;
31482;SDS011;18103;52.246;8.052;2022-12-18T11:36:57;15.48;;;6.85;;
31482;SDS011;18103;52.246;8.052;2022-12-18T11:39:30;24.98;;;7.85;;
31482;SDS011;18103;52.246;8.052;2022-12-18T11:42:24;20.13;;;7.68;;
31482;SDS011;18103;52.246;8.052;2022-12-18T11:47:44;12.55;;;6.32;;
31482;SDS011;18103;52.246;8.052;2022-12-18T11:50:18;17.50;;;8.70;;
31482;SDS011;18103;52.246;8.052;2022-12-18T11:52:47;13.85;;;7.28;;
31482;SDS011;18103;52.246;8.052;2022-12-18T11:57:58;18.98;;;6.93;;
31482;SDS011;18103;52.246;8.052;2022-12-18T12:00:32;16.70;;;6.60;;
31482;SDS011;18103;52.246;8.052;2022-12-18T12:08:17;16.27;;;7.27;;
31482;SDS011;18103;52.246;8.052;2022-12-18T12:11:13;14.07;;;7.05;;
31482;SDS011;18103;52.246;8.052;2022-12-18T12:16:33;16.48;;;6.43;;
31482;SDS011;18103;52.246;8.052;2022-12-18T12:21:43;18.42;;;6.28;;
31482;SDS011;18103;52.246;8.052;2022-12-18T12:32:35;15.88;;;6.00;;
31482;SDS011;18103;52.246;8.052;2022-12-18T12:35:28;13.00;;;5.65;;
31482;SDS011;18103;52.246;8.052;2022-12-18T12:40:54;13.48;;;7.18;;
31482;SDS011;18103;52.246;8.052;2022-12-18T12:43:43;10.60;;;5.80;;
31482;SDS011;18103;52.246;8.052;2022-12-18T12:46:13;15.50;;;6.10;;
31482;SDS011;18103;52.246;8.052;2022-12-18T12:53:51;19.63;;;5.97;;
31482;SDS011;18103;52.246;8.052;2022-12-18T12:56:19;17.45;;;6.30;;
31482;SDS011;18103;52.246;8.052;2022-12-18T12:58:58;16.30;;;7.00;;
31482;SDS011;18103;52.246;8.052;2022-12-18T13:01:31;11.60;;;6.22;;
31482;SDS011;18103;52.246;8.052;2022-12-18T13:04:11;16.73;;;6.75;;
31482;SDS011;18103;52.246;8.052;2022-12-18T13:09:31;16.58;;;5.93;;
31482;SDS011;18103;52.246;8.052;2022-12-18T13:12:01;13.43;;;5.55;;
31482;SDS011;18103;52.246;8.052;2022-12-18T13:14:53;7.53;;;3.90;;
31482;SDS011;18103;52.246;8.052;2022-12-18T13:19:50;14.95;;;5.03;;
31482;SDS011;18103;52.246;8.052;2022-12-18T13:22:23;15.15;;;6.28;;
31482;SDS011;18103;52.246;8.052;2022-12-18T13:24:56;11.25;;;2.50;;
31482;SDS011;18103;52.246;8.052;2022-12-18T13:40:54;6.80;;;3.35;;
31482;SDS011;18103;52.246;8.052;2022-12-18T13:45:50;5.23;;;3.30;;
31482;SDS011;18103;52.246;8.052;2022-12-18T13:48:26;6.38;;;3.78;;
31482;SDS011;18103;52.246;8.052;2022-12-18T13:50:55;5.88;;;2.70;;
31482;SDS011;18103;52.246;8.052;2022-12-18T13:53:33;6.18;;;3.70;;
31482;SDS011;18103;52.246;8.052;2022-12-18T13:56:22;3.25;;;2.63;;
31482;SDS011;18103;52.246;8.052;2022-12-18T14:04:22;4.57;;;2.83;;
31482;SDS011;18103;52.246;8.052;2022-12-18T14:06:49;3.22;;;2.08;;
31482;SDS011;18103;52.246;8.052;2022-12-18T14:09:19;10.60;;;4.38;;
31482;SDS011;18103;52.246;8.052;2022-12-18T14:11:49;4.85;;;2.83;;
31482;SDS011;18103;52.246;8.052;2022-12-18T14:14:16;5.65;;;2.35;;
31482;SDS011;18103;52.246;8.052;2022-12-18T14:16:43;7.50;;;4.00;;
31482;SDS011;18103;52.246;8.052;2022-12-18T14:19:13;7.45;;;3.72;;
31482;SDS011;18103;52.246;8.052;2022-12-18T14:21:44;6.38;;;2.83;;
31482;SDS011;18103;52.246;8.052;2022-12-18T14:24:15;1.90;;;1.40;;
31482;SDS011;18103;52.246;8.052;2022-12-18T14:26:41;3.65;;;2.38;;
31482;SDS011;18103;52.246;8.052;2022-12-18T14:29:21;10.27;;;4.13;;
31482;SDS011;18103;52.246;8.052;2022-12-18T14:32:13;7.00;;;2.45;;
31482;SDS011;18103;52.246;8.052;2022-12-18T14:34:42;14.38;;;4.35;;
31482;SDS011;18103;52.246;8.052;2022-12-18T14:37:13;3.70;;;2.17;;
31482;SDS011;18103;52.246;8.052;2022-12-18T14:39:40;9.23;;;3.60;;
31482;SDS011;18103;52.246;8.052;2022-12-18T14:42:05;7.83;;;3.77;;
31482;SDS011;18103;52.246;8.052;2022-12-18T14:44:31;4.53;;;2.40;;
31482;SDS011;18103;52.246;8.052;2022-12-18T14:46:56;5.13;;;2.60;;
31482;SDS011;18103;52.246;8.052;2022-12-18T14:49:26;7.23;;;2.83;;
31482;SDS011;18103;52.246;8.052;2022-12-18T14:51:56;8.52;;;2.50;;
31482;SDS011;18103;52.246;8.052;2022-12-18T14:54:24;2.85;;;1.83;;
31482;SDS011;18103;52.246;8.052;2022-12-18T14:56:56;6.20;;;3.17;;
31482;SDS011;18103;52.246;8.052;2022-12-18T14:59:51;6.90;;;2.95;;
31482;SDS011;18103;52.246;8.052;2022-12-18T15:02:21;8.80;;;3.77;;
31482;SDS011;18103;52.246;8.052;2022-12-18T15:05:03;10.98;;;3.63;;
31482;SDS011;18103;52.246;8.052;2022-12-18T15:07:42;12.98;;;2.83;;
31482;SDS011;18103;52.246;8.052;2022-12-18T15:10:11;13.02;;;4.28;;
31482;SDS011;18103;52.246;8.052;2022-12-18T15:12:40;9.48;;;3.42;;
31482;SDS011;18103;52.246;8.052;2022-12-18T15:17:58;7.38;;;3.08;;
31482;SDS011;18103;52.246;8.052;2022-12-18T15:20:30;3.05;;;2.17;;
31482;SDS011;18103;52.246;8.052;2022-12-18T15:22:58;14.20;;;4.75;;
31482;SDS011;18103;52.246;8.052;2022-12-18T15:25:34;4.33;;;1.43;;
31482;SDS011;18103;52.246;8.052;2022-12-18T15:28:02;4.15;;;3.10;;
31482;SDS011;18103;52.246;8.052;2022-12-18T15:30:29;9.60;;;3.00;;
31482;SDS011;18103;52.246;8.052;2022-12-18T15:33:37;2.70;;;1.70;;
31482;SDS011;18103;52.246;8.052;2022-12-18T15:36:08;3.15;;;1.50;;
31482;SDS011;18103;52.246;8.052;2022-12-18T15:38:36;5.88;;;1.65;;
31482;SDS011;18103;52.246;8.052;2022-12-18T15:41:02;9.43;;;3.27;;
31482;SDS011;18103;52.246;8.052;2022-12-18T15:43:28;4.05;;;2.20;;
31482;SDS011;18103;52.246;8.052;2022-12-18T15:46:03;4.25;;;2.22;;
31482;SDS011;18103;52.246;8.052;2022-12-18T15:48:31;2.53;;;2.33;;
31482;SDS011;18103;52.246;8.052;2022-12-18T15:50:59;9.52;;;2.78;;
31482;SDS011;18103;52.246;8.052;2022-12-18T15:53:25;4.22;;;2.13;;
31482;SDS011;18103;52.246;8.052;2022-12-18T15:55:55;5.90;;;3.40;;
31482;SDS011;18103;52.246;8.052;2022-12-18T15:58:39;6.70;;;3.50;;
31482;SDS011;18103;52.246;8.052;2022-12-18T16:01:04;3.67;;;2.20;;
31482;SDS011;18103;52.246;8.052;2022-12-18T16:03:30;8.73;;;2.87;;
31482;SDS011;18103;52.246;8.052;2022-12-18T16:05:55;7.30;;;2.43;;
31482;SDS011;18103;52.246;8.052;2022-12-18T16:08:23;8.93;;;3.00;;
31482;SDS011;18103;52.246;8.052;2022-12-18T16:10:49;4.00;;;2.10;;
31482;SDS011;18103;52.246;8.052;2022-12-18T16:13:15;9.83;;;4.40;;
31482;SDS011;18103;52.246;8.052;2022-12-18T16:15:44;11.05;;;4.20;;
31482;SDS011;18103;52.246;8.052;2022-12-18T16:18:09;10.97;;;3.73;;
31482;SDS011;18103;52.246;8.052;2022-12-18T16:20:34;11.30;;;2.90;;
31482;SDS011;18103;52.246;8.052;2022-12-18T16:23:00;5.03;;;2.97;;
31482;SDS011;18103;52.246;8.052;2022-12-18T16:25:26;6.77;;;3.33;;
31482;SDS011;18103;52.246;8.052;2022-12-18T16:27:53;12.88;;;3.05;;
31482;SDS011;18103;52.246;8.052;2022-12-18T16:30:23;6.65;;;2.50;;
31482;SDS011;18103;52.246;8.052;2022-12-18T16:32:54;2.92;;;2.63;;
31482;SDS011;18103;52.246;8.052;2022-12-18T16:35:20;8.48;;;3.10;;
31482;SDS011;18103;52.246;8.052;2022-12-18T16:37:45;6.60;;;2.37;;
31482;SDS011;18103;52.246;8.052;2022-12-18T16:40:12;4.80;;;2.80;;
31482;SDS011;18103;52.246;8.052;2022-12-18T16:42:40;7.55;;;2.70;;
31482;SDS011;18103;52.246;8.052;2022-12-18T16:45:07;8.32;;;3.22;;